createdAt,value
2024-05-09T00:00:44.489Z,7.76
2024-05-09T00:01:44.433Z,7.74
2024-05-09T00:02:44.388Z,7.72
2024-05-09T00:03:44.529Z,7.68
2024-05-09T00:04:44.412Z,7.64
2024-05-09T00:05:44.688Z,7.59
2024-05-09T00:06:44.322Z,7.54
2024-05-09T00:07:44.333Z,7.50
2024-05-09T00:08:44.462Z,7.46
2024-05-09T00:09:44.265Z,7.42
2024-05-09T00:10:44.339Z,7.37
2024-05-09T00:11:44.296Z,7.35
2024-05-09T00:12:44.236Z,7.34
2024-05-09T00:13:44.228Z,7.34
2024-05-09T00:14:44.332Z,7.36
2024-05-09T00:15:44.193Z,7.38
2024-05-09T00:16:44.233Z,7.39
2024-05-09T00:17:44.482Z,7.39
2024-05-09T00:18:44.225Z,7.38
2024-05-09T00:19:44.222Z,7.38
2024-05-09T00:20:44.198Z,7.40
2024-05-09T00:21:44.197Z,7.41
2024-05-09T00:22:44.128Z,7.43
2024-05-09T00:23:44.142Z,7.43
2024-05-09T00:24:44.084Z,7.43
2024-05-09T00:25:44.438Z,7.42
2024-05-09T00:26:44.063Z,7.42
2024-05-09T00:27:44.031Z,7.41
2024-05-09T00:28:44.059Z,7.40
2024-05-09T00:29:43.984Z,7.40
2024-05-09T00:30:44.120Z,7.41
2024-05-09T00:31:44.014Z,7.41
2024-05-09T00:32:44.109Z,7.42
2024-05-09T00:33:44.152Z,7.42
2024-05-09T00:34:44.027Z,7.41
2024-05-09T00:35:43.925Z,7.40
2024-05-09T00:36:43.912Z,7.37
2024-05-09T00:37:43.948Z,7.35
2024-05-09T00:38:43.969Z,7.31
2024-05-09T00:39:43.847Z,7.26
2024-05-09T00:40:43.986Z,7.20
2024-05-09T00:41:43.924Z,7.14
2024-05-09T00:42:43.838Z,7.08
2024-05-09T00:43:43.875Z,7.02
2024-05-09T00:44:43.819Z,6.96
2024-05-09T00:45:44.255Z,6.92
2024-05-09T00:46:43.839Z,6.89
2024-05-09T00:47:43.885Z,6.87
2024-05-09T00:48:43.936Z,6.85
2024-05-09T00:49:43.943Z,6.83
2024-05-09T00:50:43.773Z,6.82
2024-05-09T00:51:43.715Z,6.81
2024-05-09T00:52:43.742Z,6.78
2024-05-09T00:53:43.714Z,6.73
2024-05-09T00:54:43.655Z,6.70
2024-05-09T00:55:43.735Z,6.68
2024-05-09T00:56:43.681Z,6.68
2024-05-09T00:57:43.609Z,6.71
2024-05-09T00:58:43.688Z,6.73
2024-05-09T00:59:43.598Z,6.76
2024-05-09T01:00:43.739Z,6.78
2024-05-09T01:01:43.908Z,6.78
2024-05-09T01:02:43.684Z,6.77
2024-05-09T01:03:44.791Z,6.76
2024-05-09T01:04:43.742Z,6.75
2024-05-09T01:05:43.749Z,6.75
2024-05-09T01:06:43.531Z,6.75
2024-05-09T01:07:43.555Z,6.76
2024-05-09T01:08:43.587Z,6.77
2024-05-09T01:09:43.448Z,6.77
2024-05-09T01:10:45.203Z,6.77
2024-05-09T01:11:43.583Z,6.78
2024-05-09T01:12:43.421Z,6.79
2024-05-09T01:13:43.433Z,6.80
2024-05-09T01:14:43.432Z,6.82
2024-05-09T01:15:43.430Z,6.82
2024-05-09T01:16:43.432Z,6.82
2024-05-09T01:17:43.688Z,6.82
2024-05-09T01:18:43.460Z,6.81
2024-05-09T01:19:43.480Z,6.78
2024-05-09T01:20:45.151Z,6.74
2024-05-09T01:21:43.285Z,6.68
2024-05-09T01:22:43.361Z,6.60
2024-05-09T01:23:43.342Z,6.49
2024-05-09T01:24:43.270Z,6.37
2024-05-09T01:25:43.490Z,6.29
2024-05-09T01:26:43.268Z,6.24
2024-05-09T01:27:43.494Z,6.22
2024-05-09T01:28:43.309Z,6.21
2024-05-09T01:29:43.203Z,6.21
2024-05-09T01:30:43.196Z,6.23
2024-05-09T01:31:43.336Z,6.27
2024-05-09T01:32:43.313Z,6.33
2024-05-09T01:33:43.231Z,6.38
2024-05-09T01:34:43.207Z,6.41
2024-05-09T01:35:43.437Z,6.43
2024-05-09T01:36:43.104Z,6.45
2024-05-09T01:37:43.100Z,6.47
2024-05-09T01:38:43.182Z,6.49
2024-05-09T01:39:43.056Z,6.50
2024-05-09T01:40:43.235Z,6.50
2024-05-09T01:41:43.021Z,6.50
2024-05-09T01:42:43.067Z,6.49
2024-05-09T01:43:43.043Z,6.48
2024-05-09T01:44:43.026Z,6.47
2024-05-09T01:45:42.994Z,6.48
2024-05-09T01:46:43.045Z,6.48
2024-05-09T01:47:43.169Z,6.47
2024-05-09T01:48:43.085Z,6.44
2024-05-09T01:49:43.333Z,6.38
2024-05-09T01:50:43.634Z,6.29
2024-05-09T01:51:42.898Z,6.19
2024-05-09T01:52:42.951Z,6.09
2024-05-09T01:53:42.914Z,6.02
2024-05-09T01:54:42.857Z,5.96
2024-05-09T01:55:43.059Z,5.90
2024-05-09T01:56:42.919Z,5.83
2024-05-09T01:57:42.821Z,5.77
2024-05-09T01:58:42.859Z,5.76
2024-05-09T01:59:42.793Z,5.77
2024-05-09T02:00:43.647Z,5.77
2024-05-09T02:01:56.160Z,5.77
2024-05-09T02:02:42.910Z,5.75
2024-05-09T02:03:43.051Z,5.71
2024-05-09T02:04:42.829Z,5.64
2024-05-09T02:05:43.082Z,5.56
2024-05-09T02:06:42.783Z,5.48
2024-05-09T02:07:42.841Z,5.43
2024-05-09T02:08:42.827Z,5.39
2024-05-09T02:09:42.666Z,5.40
2024-05-09T02:10:42.781Z,5.45
2024-05-09T02:11:42.737Z,5.47
2024-05-09T02:12:42.655Z,5.47
2024-05-09T02:13:42.716Z,5.45
2024-05-09T02:14:42.630Z,5.42
2024-05-09T02:15:42.648Z,5.36
2024-05-09T02:16:42.754Z,5.30
2024-05-09T02:17:42.846Z,5.30
2024-05-09T02:18:42.761Z,5.34
2024-05-09T02:19:42.533Z,5.37
2024-05-09T02:20:43.448Z,5.37
2024-05-09T02:21:42.512Z,5.37
2024-05-09T02:22:42.537Z,5.35
2024-05-09T02:23:42.573Z,5.34
2024-05-09T02:24:42.469Z,5.33
2024-05-09T02:25:42.462Z,5.30
2024-05-09T02:26:42.519Z,5.24
2024-05-09T02:27:42.435Z,5.18
2024-05-09T02:28:42.453Z,5.15
2024-05-09T02:29:42.473Z,5.17
2024-05-09T02:30:42.803Z,5.23
2024-05-09T02:31:42.373Z,5.31
2024-05-09T02:32:42.559Z,5.38
2024-05-09T02:33:42.463Z,5.44
2024-05-09T02:34:42.340Z,5.49
2024-05-09T02:35:43.472Z,5.50
2024-05-09T02:36:42.337Z,5.47
2024-05-09T02:37:42.316Z,5.42
2024-05-09T02:38:42.326Z,5.35
2024-05-09T02:39:42.276Z,5.27
2024-05-09T02:40:42.293Z,5.18
2024-05-09T02:41:42.246Z,5.08
2024-05-09T02:42:42.224Z,4.99
2024-05-09T02:43:42.214Z,4.90
2024-05-09T02:44:42.244Z,4.87
2024-05-09T02:45:42.218Z,4.89
2024-05-09T02:46:42.171Z,4.96
2024-05-09T02:47:42.268Z,5.03
2024-05-09T02:48:42.263Z,5.08
2024-05-09T02:49:42.136Z,5.12
2024-05-09T02:50:42.425Z,5.16
2024-05-09T02:51:42.116Z,5.18
2024-05-09T02:52:42.058Z,5.21
2024-05-09T02:53:42.147Z,5.24
2024-05-09T02:54:42.031Z,5.26
2024-05-09T02:55:42.778Z,5.27
2024-05-09T02:56:42.200Z,5.31
2024-05-09T02:57:41.998Z,5.36
2024-05-09T02:58:42.003Z,5.38
2024-05-09T02:59:41.967Z,5.39
2024-05-09T03:00:43.040Z,5.39
2024-05-09T03:01:42.103Z,5.38
2024-05-09T03:02:42.073Z,5.37
2024-05-09T03:03:42.119Z,5.38
2024-05-09T03:04:41.989Z,5.39
2024-05-09T03:05:42.262Z,5.38
2024-05-09T03:06:41.851Z,5.34
2024-05-09T03:07:41.848Z,5.30
2024-05-09T03:08:41.922Z,5.26
2024-05-09T03:09:41.815Z,5.21
2024-05-09T03:10:41.830Z,5.14
2024-05-09T03:11:41.923Z,5.08
2024-05-09T03:12:41.873Z,5.06
2024-05-09T03:13:41.810Z,5.07
2024-05-09T03:14:41.812Z,5.08
2024-05-09T03:15:41.774Z,5.05
2024-05-09T03:16:41.737Z,5.00
2024-05-09T03:17:41.918Z,4.96
2024-05-09T03:18:41.846Z,4.91
2024-05-09T03:19:41.729Z,4.84
2024-05-09T03:20:41.938Z,4.76
2024-05-09T03:21:41.729Z,4.66
2024-05-09T03:22:41.658Z,4.57
2024-05-09T03:23:41.734Z,4.50
2024-05-09T03:24:41.638Z,4.44
2024-05-09T03:25:41.646Z,4.38
2024-05-09T03:26:41.622Z,4.33
2024-05-09T03:27:41.596Z,4.30
2024-05-09T03:28:41.589Z,4.28
2024-05-09T03:29:41.560Z,4.27
2024-05-09T03:30:43.138Z,4.28
2024-05-09T03:31:41.590Z,4.26
2024-05-09T03:32:41.780Z,4.26
2024-05-09T03:33:41.576Z,4.28
2024-05-09T03:34:41.497Z,4.34
2024-05-09T03:35:41.529Z,4.46
2024-05-09T03:36:41.488Z,4.60
2024-05-09T03:37:41.456Z,4.72
2024-05-09T03:38:41.514Z,4.81
2024-05-09T03:39:41.450Z,4.85
2024-05-09T03:40:41.442Z,4.85
2024-05-09T03:41:41.476Z,4.81
2024-05-09T03:42:41.403Z,4.76
2024-05-09T03:43:41.381Z,4.72
2024-05-09T03:44:41.467Z,4.69
2024-05-09T03:45:41.373Z,4.67
2024-05-09T03:46:41.334Z,4.65
2024-05-09T03:47:41.707Z,4.63
2024-05-09T03:48:41.383Z,4.60
2024-05-09T03:49:41.399Z,4.58
2024-05-09T03:50:41.507Z,4.57
2024-05-09T03:51:41.263Z,4.55
2024-05-09T03:52:41.282Z,4.55
2024-05-09T03:53:41.316Z,4.57
2024-05-09T03:54:41.230Z,4.58
2024-05-09T03:55:41.237Z,4.58
2024-05-09T03:56:41.299Z,4.57
2024-05-09T03:57:41.229Z,4.55
2024-05-09T03:58:41.165Z,4.56
2024-05-09T03:59:41.204Z,4.57
2024-05-09T04:00:41.626Z,4.60
2024-05-09T04:01:41.247Z,4.63
2024-05-09T04:02:41.308Z,4.67
2024-05-09T04:03:41.223Z,4.69
2024-05-09T04:04:41.283Z,4.71
2024-05-09T04:05:42.443Z,4.73
2024-05-09T04:06:41.104Z,4.75
2024-05-09T04:07:41.063Z,4.77
2024-05-09T04:08:41.147Z,4.81
2024-05-09T04:09:41.034Z,4.85
2024-05-09T04:10:41.035Z,4.90
2024-05-09T04:11:41.181Z,4.95
2024-05-09T04:12:40.998Z,5.00
2024-05-09T04:13:40.993Z,5.05
2024-05-09T04:14:41.089Z,5.09
2024-05-09T04:15:40.978Z,5.10
2024-05-09T04:16:40.980Z,5.10
2024-05-09T04:17:41.183Z,5.07
2024-05-09T04:18:41.055Z,5.02
2024-05-09T04:19:40.995Z,4.97
2024-05-09T04:20:41.518Z,4.91
2024-05-09T04:21:40.857Z,4.88
2024-05-09T04:22:40.875Z,4.90
2024-05-09T04:23:40.919Z,4.96
2024-05-09T04:24:40.864Z,5.05
2024-05-09T04:25:40.824Z,5.13
2024-05-09T04:26:40.891Z,5.21
2024-05-09T04:27:40.778Z,5.26
2024-05-09T04:28:40.798Z,5.30
2024-05-09T04:29:40.812Z,5.34
2024-05-09T04:30:41.838Z,5.37
2024-05-09T04:31:40.749Z,5.39
2024-05-09T04:32:41.047Z,5.41
2024-05-09T04:33:40.927Z,5.44
2024-05-09T04:34:40.853Z,5.48
2024-05-09T04:35:40.774Z,5.52
2024-05-09T04:36:43.974Z,5.56
2024-05-09T04:37:40.661Z,5.58
2024-05-09T04:38:40.731Z,5.61
2024-05-09T04:39:40.640Z,5.62
2024-05-09T04:40:40.638Z,5.65
2024-05-09T04:41:40.657Z,5.68
2024-05-09T04:42:40.619Z,5.71
2024-05-09T04:43:40.574Z,5.75
2024-05-09T04:44:40.660Z,5.78
2024-05-09T04:45:40.567Z,5.82
2024-05-09T04:46:40.626Z,5.86
2024-05-09T04:47:40.772Z,5.90
2024-05-09T04:48:40.689Z,5.93
2024-05-09T04:49:40.508Z,5.96
2024-05-09T04:50:40.740Z,5.98
2024-05-09T04:51:40.474Z,6.02
2024-05-09T04:52:40.482Z,6.07
2024-05-09T04:53:40.483Z,6.12
2024-05-09T04:54:40.450Z,6.16
2024-05-09T04:55:40.813Z,6.17
2024-05-09T04:56:40.506Z,6.18
2024-05-09T04:57:40.407Z,6.18
2024-05-09T04:58:40.470Z,6.18
2024-05-09T04:59:40.439Z,6.18
2024-05-09T05:00:41.215Z,6.19
2024-05-09T05:01:40.357Z,6.21
2024-05-09T05:02:40.504Z,6.23
2024-05-09T05:03:40.625Z,6.26
2024-05-09T05:04:40.359Z,6.29
2024-05-09T05:05:40.731Z,6.32
2024-05-09T05:06:40.288Z,6.34
2024-05-09T05:07:40.261Z,6.36
2024-05-09T05:08:40.358Z,6.39
2024-05-09T05:09:40.242Z,6.42
2024-05-09T05:10:40.269Z,6.45
2024-05-09T05:11:40.316Z,6.48
2024-05-09T05:12:40.213Z,6.51
2024-05-09T05:13:41.592Z,6.54
2024-05-09T05:14:40.358Z,6.58
2024-05-09T05:15:40.172Z,6.62
2024-05-09T05:16:40.158Z,6.65
2024-05-09T05:17:40.327Z,6.69
2024-05-09T05:18:40.353Z,6.72
2024-05-09T05:19:40.240Z,6.77
2024-05-09T05:20:40.184Z,6.82
2024-05-09T05:21:40.067Z,6.88
2024-05-09T05:22:40.094Z,6.96
2024-05-09T05:23:40.078Z,7.07
2024-05-09T05:24:40.044Z,7.21
2024-05-09T05:25:40.112Z,7.38
2024-05-09T05:26:40.307Z,7.56
2024-05-09T05:27:40.001Z,7.75
2024-05-09T05:28:39.983Z,7.92
2024-05-09T05:29:39.986Z,8.09
2024-05-09T05:30:39.996Z,8.24
2024-05-09T05:31:39.968Z,8.38
2024-05-09T05:32:40.134Z,8.49
2024-05-09T05:33:40.091Z,8.57
2024-05-09T05:34:39.963Z,8.63
2024-05-09T05:35:39.999Z,8.68
2024-05-09T05:36:39.897Z,8.75
2024-05-09T05:37:39.871Z,8.83
2024-05-09T05:38:40.073Z,8.92
2024-05-09T05:39:39.862Z,9.00
2024-05-09T05:40:40.853Z,9.07
2024-05-09T05:41:39.863Z,9.14
2024-05-09T05:42:39.819Z,9.21
2024-05-09T05:43:39.820Z,9.28
2024-05-09T05:44:39.940Z,9.35
2024-05-09T05:45:39.781Z,9.43
2024-05-09T05:46:39.737Z,9.52
2024-05-09T05:47:39.931Z,9.63
2024-05-09T05:48:39.854Z,9.71
2024-05-09T05:49:39.804Z,9.79
2024-05-09T05:50:39.931Z,9.87
2024-05-09T05:51:39.668Z,9.95
2024-05-09T05:52:39.694Z,10.02
2024-05-09T05:53:39.805Z,10.08
2024-05-09T05:54:39.629Z,10.13
2024-05-09T05:55:39.936Z,10.19
2024-05-09T05:56:39.707Z,10.25
2024-05-09T05:57:39.599Z,10.31
2024-05-09T05:58:39.612Z,10.39
2024-05-09T05:59:39.593Z,10.49
2024-05-09T06:00:40.823Z,10.57
2024-05-09T06:01:39.630Z,10.66
2024-05-09T06:02:39.754Z,10.74
2024-05-09T06:03:39.724Z,10.82
2024-05-09T06:04:39.573Z,10.91
2024-05-09T06:05:40.557Z,11.00
2024-05-09T06:06:39.486Z,11.08
2024-05-09T06:07:39.489Z,11.16
2024-05-09T06:08:39.565Z,11.24
2024-05-09T06:09:39.441Z,11.31
2024-05-09T06:10:41.023Z,11.36
2024-05-09T06:11:39.475Z,11.41
2024-05-09T06:12:39.422Z,11.46
2024-05-09T06:13:39.387Z,11.52
2024-05-09T06:14:39.459Z,11.57
2024-05-09T06:15:39.373Z,11.62
2024-05-09T06:16:39.355Z,11.69
2024-05-09T06:17:39.459Z,11.76
2024-05-09T06:18:39.499Z,11.83
2024-05-09T06:19:39.469Z,11.88
2024-05-09T06:20:39.665Z,11.84
2024-05-09T06:21:39.316Z,11.79
2024-05-09T06:22:39.271Z,11.83
2024-05-09T06:23:39.398Z,11.94
2024-05-09T06:24:39.240Z,12.08
2024-05-09T06:25:39.353Z,12.24
2024-05-09T06:26:39.339Z,12.39
2024-05-09T06:27:39.217Z,12.53
2024-05-09T06:28:39.204Z,12.67
2024-05-09T06:29:39.263Z,12.81
2024-05-09T06:30:41.459Z,12.94
2024-05-09T06:31:39.242Z,13.06
2024-05-09T06:32:39.392Z,13.19
2024-05-09T06:33:39.349Z,13.33
2024-05-09T06:34:39.215Z,13.47
2024-05-09T06:35:39.260Z,13.62
2024-05-09T06:36:39.079Z,13.76
2024-05-09T06:37:39.060Z,13.88
2024-05-09T06:38:39.305Z,13.99
2024-05-09T06:39:39.025Z,14.06
2024-05-09T06:40:40.490Z,14.09
2024-05-09T06:41:39.060Z,14.08
2024-05-09T06:42:39.023Z,14.07
2024-05-09T06:43:39.001Z,14.08
2024-05-09T06:44:39.040Z,14.13
2024-05-09T06:45:38.999Z,14.20
2024-05-09T06:46:39.072Z,14.29
2024-05-09T06:47:39.199Z,14.36
2024-05-09T06:48:39.334Z,14.44
2024-05-09T06:49:38.996Z,14.47
2024-05-09T06:50:39.940Z,14.48
2024-05-09T06:51:38.982Z,14.51
2024-05-09T06:52:38.851Z,14.57
2024-05-09T06:53:38.950Z,14.67
2024-05-09T06:54:38.875Z,14.78
2024-05-09T06:55:38.831Z,14.85
2024-05-09T06:56:38.883Z,14.87
2024-05-09T06:57:41.495Z,14.85
2024-05-09T06:58:38.770Z,14.82
2024-05-09T06:59:38.833Z,14.88
2024-05-09T07:00:41.041Z,14.97
2024-05-09T07:01:38.800Z,15.07
2024-05-09T07:02:39.012Z,15.20
2024-05-09T07:03:38.855Z,15.34
2024-05-09T07:04:38.732Z,15.47
2024-05-09T07:05:38.777Z,15.57
2024-05-09T07:06:38.672Z,15.60
2024-05-09T07:07:38.672Z,15.56
2024-05-09T07:08:48.014Z,15.46
2024-05-09T07:09:38.632Z,15.42
2024-05-09T07:10:39.308Z,15.49
2024-05-09T07:11:38.653Z,15.60
2024-05-09T07:12:38.587Z,15.72
2024-05-09T07:13:38.571Z,15.86
2024-05-09T07:14:38.844Z,15.99
2024-05-09T07:15:38.533Z,16.06
2024-05-09T07:16:39.291Z,16.10
2024-05-09T07:17:38.704Z,16.09
2024-05-09T07:18:38.821Z,16.00
2024-05-09T07:19:38.773Z,15.91
2024-05-09T07:20:38.588Z,15.90
2024-05-09T07:21:38.483Z,15.85
2024-05-09T07:27:43.912Z,17.41
2024-05-09T07:28:44.995Z,16.92
2024-05-09T07:29:44.901Z,16.65
2024-05-09T07:30:44.986Z,16.56
2024-05-09T07:31:45.013Z,16.53
2024-05-09T07:32:45.386Z,16.51
2024-05-09T07:33:45.034Z,16.56
2024-05-09T07:34:44.982Z,16.68
2024-05-09T07:35:44.855Z,16.81
2024-05-09T07:36:44.824Z,16.92
2024-05-09T07:37:44.854Z,17.00
2024-05-09T07:38:45.168Z,17.05
2024-05-09T07:39:44.795Z,17.07
2024-05-09T07:40:44.854Z,17.06
2024-05-09T07:41:44.763Z,17.06
2024-05-09T07:42:44.719Z,17.10
2024-05-09T07:43:44.733Z,17.16
2024-05-09T07:44:44.727Z,17.19
2024-05-09T07:45:51.684Z,17.15
2024-05-09T07:47:48.437Z,17.15
2024-05-09T07:51:31.622Z,17.22
2024-05-09T07:53:37.271Z,17.37
2024-05-09T07:53:51.386Z,17.54
2024-05-09T07:54:23.950Z,17.66
2024-05-09T07:55:23.894Z,17.79
2024-05-09T07:56:24.574Z,17.89
2024-05-09T07:57:23.774Z,17.95
2024-05-09T07:58:23.735Z,18.01
2024-05-09T07:59:23.677Z,18.07
2024-05-09T08:00:30.812Z,18.13
2024-05-09T08:01:23.794Z,18.15
2024-05-09T08:02:23.829Z,18.13
2024-05-09T08:03:24.133Z,18.11
2024-05-09T08:04:25.227Z,18.11
2024-05-09T08:05:23.674Z,18.07
2024-05-09T08:06:23.609Z,17.95
2024-05-09T08:07:24.378Z,17.85
2024-05-09T08:08:23.600Z,17.79
2024-05-09T08:09:23.590Z,17.76
2024-05-09T08:10:28.540Z,17.73
2024-05-09T08:11:23.563Z,17.74
2024-05-09T08:12:23.552Z,17.83
2024-05-09T08:13:24.368Z,17.88
2024-05-09T08:14:24.394Z,17.88
2024-05-09T08:15:23.494Z,17.90
2024-05-09T08:16:23.871Z,17.94
2024-05-09T08:17:24.420Z,17.94
2024-05-09T08:18:23.555Z,17.97
2024-05-09T08:19:24.424Z,18.08
2024-05-09T08:20:30.923Z,18.23
2024-05-09T08:21:24.341Z,18.37
2024-05-09T08:22:23.418Z,18.54
2024-05-09T08:23:24.356Z,18.68
2024-05-09T08:24:23.361Z,18.78
2024-05-09T08:25:23.405Z,18.86
2024-05-09T08:26:23.330Z,18.93
2024-05-09T08:27:23.292Z,19.03
2024-05-09T08:28:23.399Z,19.06
2024-05-09T08:29:23.282Z,19.03
2024-05-09T08:30:30.092Z,18.95
2024-05-09T08:31:23.402Z,18.89
2024-05-09T08:32:23.400Z,18.90
2024-05-09T08:33:23.424Z,18.97
2024-05-09T08:34:23.346Z,19.06
2024-05-09T08:35:23.275Z,19.13
2024-05-09T08:36:23.220Z,19.22
2024-05-09T08:37:26.085Z,19.29
2024-05-09T08:38:23.154Z,19.36
2024-05-09T08:39:23.151Z,19.43
2024-05-09T08:40:30.770Z,19.48
2024-05-09T08:41:23.129Z,19.50
2024-05-09T08:42:23.107Z,19.50
2024-05-09T08:43:23.403Z,19.48
2024-05-09T08:44:23.070Z,19.44
2024-05-09T08:45:23.067Z,19.36
2024-05-09T08:46:23.225Z,19.26
2024-05-09T08:47:23.163Z,19.18
2024-05-09T08:48:23.323Z,19.15
2024-05-09T08:49:23.064Z,19.18
2024-05-09T08:50:32.016Z,19.26
2024-05-09T08:51:22.979Z,19.34
2024-05-09T08:52:23.002Z,19.40
2024-05-09T08:53:22.981Z,19.44
2024-05-09T08:54:22.948Z,19.51
2024-05-09T08:55:22.932Z,19.58
2024-05-09T08:56:22.911Z,19.60
2024-05-09T08:57:22.908Z,19.56
2024-05-09T08:58:23.044Z,19.52
2024-05-09T08:59:22.860Z,19.54
2024-05-09T09:00:33.393Z,19.61
2024-05-09T09:01:22.956Z,19.73
2024-05-09T09:02:23.043Z,19.89
2024-05-09T09:03:22.943Z,20.04
2024-05-09T09:04:23.066Z,20.16
2024-05-09T09:05:22.899Z,20.13
2024-05-09T09:06:22.847Z,19.99
2024-05-09T09:07:22.884Z,19.86
2024-05-09T09:08:22.763Z,19.72
2024-05-09T09:09:22.741Z,19.57
2024-05-09T09:10:29.686Z,19.48
2024-05-09T09:11:22.727Z,19.51
2024-05-09T09:12:22.701Z,19.60
2024-05-09T09:13:22.782Z,19.71
2024-05-09T09:14:22.691Z,19.70
2024-05-09T09:15:22.727Z,19.65
2024-05-09T09:16:22.823Z,19.66
2024-05-09T09:17:22.732Z,19.72
2024-05-09T09:18:22.658Z,19.78
2024-05-09T09:19:22.843Z,19.83
2024-05-09T09:20:28.775Z,19.86
2024-05-09T09:21:22.569Z,19.79
2024-05-09T09:22:22.573Z,19.72
2024-05-09T09:23:22.558Z,19.73
2024-05-09T09:24:22.530Z,19.79
2024-05-09T09:25:22.522Z,19.90
2024-05-09T09:26:22.509Z,20.03
2024-05-09T09:27:22.514Z,20.15
2024-05-09T09:28:22.528Z,20.19
2024-05-09T09:29:22.500Z,20.14
2024-05-09T09:30:34.520Z,20.06
2024-05-09T09:31:22.484Z,20.02
2024-05-09T09:32:22.471Z,20.02
2024-05-09T09:33:22.565Z,20.10
2024-05-09T09:34:22.573Z,20.16
2024-05-09T09:35:22.481Z,20.20
2024-05-09T09:36:22.380Z,20.24
2024-05-09T09:37:22.357Z,20.29
2024-05-09T09:38:22.378Z,20.31
2024-05-09T09:39:22.334Z,20.22
2024-05-09T09:40:25.620Z,20.08
2024-05-09T09:41:22.338Z,20.05
2024-05-09T09:42:22.286Z,20.11
2024-05-09T09:43:22.875Z,20.22
2024-05-09T09:44:22.325Z,20.32
2024-05-09T09:45:22.285Z,20.42
2024-05-09T09:46:22.317Z,20.47
2024-05-09T09:47:22.318Z,20.44
2024-05-09T09:48:23.092Z,20.43
2024-05-09T09:49:22.226Z,20.39
2024-05-09T09:50:27.924Z,20.33
2024-05-09T09:51:22.210Z,20.36
2024-05-09T09:52:22.364Z,20.42
2024-05-09T09:53:22.186Z,20.53
2024-05-09T09:54:22.146Z,20.64
2024-05-09T09:55:22.241Z,20.76
2024-05-09T09:56:22.136Z,20.88
2024-05-09T09:57:22.094Z,21.00
2024-05-09T09:58:22.235Z,21.10
2024-05-09T09:59:22.083Z,21.12
2024-05-09T10:00:27.219Z,21.06
2024-05-09T10:01:22.236Z,20.95
2024-05-09T10:02:22.177Z,20.86
2024-05-09T10:03:22.153Z,20.85
2024-05-09T10:04:22.099Z,20.88
2024-05-09T10:05:22.213Z,20.98
2024-05-09T10:06:21.993Z,21.06
2024-05-09T10:07:22.009Z,21.08
2024-05-09T10:08:21.958Z,21.05
2024-05-09T10:09:21.965Z,21.04
2024-05-09T10:10:29.885Z,21.08
2024-05-09T10:11:22.020Z,21.10
2024-05-09T10:12:21.920Z,21.09
2024-05-09T10:13:22.002Z,21.07
2024-05-09T10:14:21.859Z,21.04
2024-05-09T10:15:21.863Z,21.02
2024-05-09T10:16:22.230Z,21.02
2024-05-09T10:17:21.870Z,21.03
2024-05-09T10:18:21.925Z,21.01
2024-05-09T10:19:21.988Z,21.00
2024-05-09T10:20:27.671Z,20.95
2024-05-09T10:21:21.805Z,20.91
2024-05-09T10:22:21.837Z,20.94
2024-05-09T10:23:21.779Z,21.01
2024-05-09T10:24:21.742Z,21.06
2024-05-09T10:25:21.932Z,21.06
2024-05-09T10:26:21.715Z,21.00
2024-05-09T10:27:21.693Z,20.89
2024-05-09T10:28:21.871Z,20.74
2024-05-09T10:29:21.670Z,20.60
2024-05-09T10:30:29.473Z,20.49
2024-05-09T10:31:21.715Z,20.40
2024-05-09T10:32:21.681Z,20.34
2024-05-09T10:33:21.671Z,20.34
2024-05-09T10:34:21.920Z,20.41
2024-05-09T10:35:21.613Z,20.49
2024-05-09T10:36:21.581Z,20.61
2024-05-09T10:37:21.636Z,20.75
2024-05-09T10:38:21.570Z,20.89
2024-05-09T10:39:21.543Z,21.06
2024-05-09T10:40:26.597Z,21.21
2024-05-09T10:41:21.527Z,21.22
2024-05-09T10:42:21.607Z,21.19
2024-05-09T10:43:21.555Z,21.18
2024-05-09T10:44:21.477Z,21.16
2024-05-09T10:45:21.466Z,21.15
2024-05-09T10:46:21.744Z,21.17
2024-05-09T10:47:21.498Z,21.24
2024-05-09T10:48:21.539Z,21.29
2024-05-09T10:49:21.453Z,21.32
2024-05-09T10:50:28.148Z,21.35
2024-05-09T10:51:21.388Z,21.36
2024-05-09T10:52:21.496Z,21.33
2024-05-09T10:53:21.424Z,21.26
2024-05-09T10:54:21.320Z,21.16
2024-05-09T10:55:21.656Z,21.06
2024-05-09T10:56:28.808Z,21.00
2024-05-09T10:57:42.791Z,20.97
2024-05-09T10:58:25.725Z,20.99
2024-05-09T11:00:23.214Z,22.66
2024-05-09T11:01:15.049Z,22.19
2024-05-09T11:02:15.240Z,21.90
2024-05-09T11:03:14.967Z,21.82
2024-05-09T11:04:15.090Z,21.83
2024-05-09T11:05:15.037Z,21.78
2024-05-09T11:06:14.928Z,21.69
2024-05-09T11:07:14.930Z,21.65
2024-05-09T11:08:14.875Z,21.65
2024-05-09T11:09:14.872Z,21.71
2024-05-09T11:10:20.698Z,21.79
2024-05-09T11:11:14.892Z,21.84
2024-05-09T11:12:14.871Z,21.87
2024-05-09T11:13:22.098Z,21.90
2024-05-09T11:14:14.812Z,21.86
2024-05-09T11:15:14.800Z,21.70
2024-05-09T11:16:14.877Z,21.39
2024-05-09T11:17:14.807Z,21.03
2024-05-09T11:18:14.784Z,20.79
2024-05-09T11:19:15.214Z,20.60
2024-05-09T11:20:22.648Z,20.37
2024-05-09T11:21:14.722Z,20.29
2024-05-09T11:22:14.959Z,20.37
2024-05-09T11:23:14.699Z,20.52
2024-05-09T11:24:14.683Z,20.73
2024-05-09T11:25:14.700Z,20.98
2024-05-09T11:26:14.643Z,21.22
2024-05-09T11:27:14.636Z,21.52
2024-05-09T11:28:14.808Z,21.87
2024-05-09T11:29:17.929Z,22.24
2024-05-09T11:30:21.287Z,22.57
2024-05-09T11:31:14.691Z,22.80
2024-05-09T11:32:14.640Z,22.83
2024-05-09T11:33:14.632Z,22.77
2024-05-09T11:34:14.812Z,22.73
2024-05-09T11:35:14.515Z,22.70
2024-05-09T11:36:14.529Z,22.66
2024-05-09T11:37:14.720Z,22.63
2024-05-09T11:38:14.478Z,22.61
2024-05-09T11:39:14.546Z,22.46
2024-05-09T11:40:21.364Z,22.23
2024-05-09T11:41:14.470Z,21.96
2024-05-09T11:42:14.439Z,21.77
2024-05-09T11:43:14.462Z,21.71
2024-05-09T11:44:15.152Z,21.79
2024-05-09T11:45:14.402Z,21.93
2024-05-09T11:46:14.703Z,22.05
2024-05-09T11:47:14.412Z,22.14
2024-05-09T11:48:14.420Z,22.19
2024-05-09T11:49:14.483Z,22.20
2024-05-09T11:50:22.499Z,22.24
2024-05-09T11:51:14.310Z,22.27
2024-05-09T11:52:14.393Z,22.26
2024-05-09T11:53:14.279Z,22.29
2024-05-09T11:54:14.287Z,22.43
2024-05-09T11:55:14.464Z,22.59
2024-05-09T11:56:14.248Z,22.75
2024-05-09T11:57:14.216Z,22.93
2024-05-09T11:58:14.394Z,23.11
2024-05-09T11:59:15.030Z,23.15
2024-05-09T12:00:18.267Z,23.04
2024-05-09T12:01:14.236Z,22.87
2024-05-09T12:02:14.409Z,22.81
2024-05-09T12:03:14.201Z,22.89
2024-05-09T12:04:14.434Z,23.06
2024-05-09T12:05:14.209Z,23.24
2024-05-09T12:06:14.138Z,23.38
2024-05-09T12:07:14.114Z,23.39
2024-05-09T12:08:14.066Z,23.34
2024-05-09T12:09:14.064Z,23.32
2024-05-09T12:10:19.476Z,23.36
2024-05-09T12:11:14.241Z,23.37
2024-05-09T12:12:14.004Z,23.31
2024-05-09T12:13:14.037Z,23.23
2024-05-09T12:14:14.005Z,23.25
2024-05-09T12:15:14.039Z,23.36
2024-05-09T12:16:14.131Z,23.49
2024-05-09T12:17:14.009Z,23.64
2024-05-09T12:18:14.693Z,23.77
2024-05-09T12:19:13.975Z,23.86
2024-05-09T12:20:21.470Z,23.92
2024-05-09T12:21:13.906Z,23.98
2024-05-09T12:22:13.943Z,24.03
2024-05-09T12:23:13.884Z,23.95
2024-05-09T12:24:16.980Z,23.72
2024-05-09T12:25:14.036Z,23.48
2024-05-09T12:26:13.838Z,23.13
2024-05-09T12:27:13.824Z,22.65
2024-05-09T12:28:13.867Z,22.18
2024-05-09T12:29:13.783Z,21.77
2024-05-09T12:30:20.791Z,21.43
2024-05-09T12:31:13.823Z,21.16
2024-05-09T12:32:13.766Z,20.94
2024-05-09T12:33:14.201Z,20.84
2024-05-09T12:34:13.839Z,20.86
2024-05-09T12:35:13.728Z,20.91
2024-05-09T12:36:13.725Z,20.89
2024-05-09T12:37:13.834Z,20.85
2024-05-09T12:38:13.703Z,20.83
2024-05-09T12:39:13.668Z,20.79
2024-05-09T12:40:22.482Z,20.69
2024-05-09T12:41:13.661Z,20.55
2024-05-09T12:42:26.329Z,20.39
2024-05-09T12:43:13.687Z,20.28
2024-05-09T12:44:13.611Z,20.29
2024-05-09T12:45:13.594Z,20.53
2024-05-09T12:46:13.644Z,20.96
2024-05-09T12:47:13.545Z,21.39
2024-05-09T12:48:14.192Z,21.76
2024-05-09T12:49:16.399Z,22.07
2024-05-09T12:50:21.948Z,22.42
2024-05-09T12:51:13.519Z,22.73
2024-05-09T12:52:13.673Z,22.93
2024-05-09T12:53:13.529Z,23.10
2024-05-09T12:54:13.465Z,23.33
2024-05-09T12:55:13.466Z,23.56
2024-05-09T12:56:13.427Z,23.66
2024-05-09T12:57:13.441Z,23.63
2024-05-09T12:58:13.594Z,23.61
2024-05-09T12:59:13.398Z,23.58
2024-05-09T13:00:23.362Z,23.56
2024-05-09T13:01:13.501Z,23.62
2024-05-09T13:02:13.683Z,23.68
2024-05-09T13:03:13.546Z,23.69
2024-05-09T13:04:13.490Z,23.75
2024-05-09T13:05:13.388Z,23.86
2024-05-09T13:06:13.296Z,23.83
2024-05-09T13:07:14.124Z,23.72
2024-05-09T13:08:13.348Z,23.66
2024-05-09T13:09:13.272Z,23.69
2024-05-09T13:10:19.767Z,23.83
2024-05-09T13:11:13.260Z,23.89
2024-05-09T13:12:13.215Z,23.75
2024-05-09T13:13:13.428Z,23.62
2024-05-09T13:14:13.216Z,23.63